»·PEaware :: TCMSM KSNA-KCMA

TCMSM :: KSNA-KCMA

FLIGHT INFORMATION

Flight Status: Arrived
Operator: Unknown
More flights by this operator :: More flights under this callsign
Pilot: Derin Hakan K. (22511)
Aircraft: Diamond DA-40
(DA40)
More flights by this aircraft type
Origin: KSNA John Wayne-Orange Co
United States
Destination: KCMA Camarillo
United States
More flights between these airports :: More routes between these airports
Route: SLI V23 POPPR SMO125 SMO VNY
File this flight plan on PilotEdge
Remarks: TEC route
Altitude:
(Current/Filed)
4,000ft
Speed:
(Current/Filed)
125kts
Departed: 01-Dec-20 08:37 AM
Arrived: 01-Dec-20 09:19 AM
Distance/Time
Traveled:
69nm/0:42
Distance/Time
To Go:
Arrived

Flight Plot

Page will automatically refresh every two minutes.


Map Options




Map Legend


Flown Route
Filed Route
Departure Airport
Arrival Airport
Navaid (VOR, NDB)
Fix

Horizontal Profiles

Position Reports

Time Latitude Longitude Heading Altitude Ground
Speed
01-Dec-20 08:21 33.676153 -117.870775 357 53ft 0kts
01-Dec-20 08:22 33.676153 -117.870775 357 53ft 0kts
01-Dec-20 08:23 33.676153 -117.870775 357 53ft 0kts
01-Dec-20 08:24 33.676153 -117.870775 357 53ft 0kts
01-Dec-20 08:25 33.676153 -117.870775 357 53ft 0kts
01-Dec-20 08:26 33.676153 -117.870775 357 53ft 0kts
01-Dec-20 08:27 33.676153 -117.870775 357 53ft 0kts
01-Dec-20 08:28 33.676153 -117.870775 357 53ft 0kts
01-Dec-20 08:29 33.676153 -117.870775 357 53ft 0kts
01-Dec-20 08:30 33.676153 -117.870775 357 53ft 0kts
01-Dec-20 08:31 33.676490 -117.870232 55 53ft 8kts
01-Dec-20 08:32 33.680565 -117.867504 25 44ft 23kts
01-Dec-20 08:33 33.681238 -117.866518 103 43ft 0kts
01-Dec-20 08:34 33.681238 -117.866518 103 43ft 0kts
01-Dec-20 08:35 33.680560 -117.865762 207 44ft 17kts
01-Dec-20 08:36 33.663965 -117.876286 209 343ft 82kts
01-Dec-20 08:37 33.647764 -117.897195 233 952ft 86kts
01-Dec-20 08:38 33.633381 -117.920275 234 1678ft 86kts
01-Dec-20 08:39 33.623087 -117.945355 279 2408ft 86kts
01-Dec-20 08:40 33.631185 -117.972610 293 3139ft 87kts
01-Dec-20 08:41 33.640414 -117.999835 282 3861ft 92kts
01-Dec-20 08:42 33.644383 -118.037379 291 3991ft 127kts
01-Dec-20 08:43 33.676497 -118.053773 351 3996ft 132kts
01-Dec-20 08:44 33.713058 -118.059310 342 3998ft 132kts
01-Dec-20 08:45 33.738589 -118.089307 302 4001ft 131kts
01-Dec-20 08:46 33.757880 -118.126472 301 4000ft 131kts
01-Dec-20 08:47 33.776717 -118.162935 301 4000ft 131kts
01-Dec-20 08:48 33.794095 -118.194772 303 3998ft 131kts
01-Dec-20 08:49 33.812645 -118.229510 301 4000ft 131kts
01-Dec-20 08:50 33.829664 -118.263317 300 3999ft 130kts
01-Dec-20 08:51 33.848221 -118.295456 316 4000ft 131kts
01-Dec-20 08:52 33.877008 -118.322278 321 3999ft 131kts
01-Dec-20 08:53 33.904975 -118.350593 319 3999ft 131kts
01-Dec-20 08:54 33.933010 -118.378794 319 3999ft 131kts
01-Dec-20 08:55 33.961057 -118.407063 319 3999ft 131kts
01-Dec-20 08:56 33.989163 -118.435429 319 3999ft 131kts
01-Dec-20 08:57 34.019601 -118.458579 344 4000ft 132kts
01-Dec-20 08:58 34.056284 -118.463616 354 3999ft 132kts
01-Dec-20 08:59 34.092685 -118.469680 351 4000ft 133kts
01-Dec-20 09:00 34.122293 -118.488607 300 3999ft 120kts
01-Dec-20 09:01 34.136612 -118.524646 293 4000ft 118kts
01-Dec-20 09:02 34.149595 -118.560699 292 3999ft 117kts
01-Dec-20 09:04 34.162521 -118.596944 292 4001ft 117kts
01-Dec-20 09:05 34.175386 -118.633314 290 3999ft 118kts
01-Dec-20 09:06 34.183984 -118.671528 283 3997ft 117kts
01-Dec-20 09:07 34.191454 -118.709883 282 4002ft 117kts
01-Dec-20 09:08 34.198858 -118.748199 283 4000ft 117kts
01-Dec-20 09:09 34.206414 -118.786813 282 4000ft 117kts
01-Dec-20 09:10 34.213917 -118.825248 282 4001ft 117kts
01-Dec-20 09:11 34.216849 -118.864062 270 3057ft 115kts
01-Dec-20 09:12 34.215801 -118.898801 267 2202ft 97kts
01-Dec-20 09:13 34.214980 -118.931493 268 1829ft 98kts
01-Dec-20 09:14 34.213643 -118.965150 266 1543ft 101kts
01-Dec-20 09:15 34.212960 -118.997397 269 1357ft 95kts
01-Dec-20 09:16 34.213231 -119.028054 269 959ft 83kts
01-Dec-20 09:17 34.213469 -119.055925 270 432ft 82kts
01-Dec-20 09:18 34.213662 -119.082873 270 110ft 76kts
01-Dec-20 09:19 34.212214 -119.090751 133 75ft 9kts
01-Dec-20 09:20 34.210977 -119.088235 92 77ft 9kts
01-Dec-20 09:20 34.210806 -119.085597 163 79ft 8kts

Navigation Log

Ident Type
Flight plan parsing failed, navigation log unavailable